Calvin, OK

12:39 PM CDT on July 29, 2014 (GMT -0500)
Seminole (KSRE) Elev 1024 ft | 35.27 °N, 96.68 °W | Change Station

Current weather conditions updated 743 days ago

Partly Cloudy
Partly Cloudy
84 °F
Feels Like 84 °F
N
5
Wind Variable Wind from East
Gusts 7 mph

Today is forecast to be Much Warmer than yesterday. Thunderstorms.

Today
High -- | Low -- °F
--% Chance of Precip.
Yesterday
High -- | Low -- °F
Precip. -- in
6:32 AM 8:30 PM
Waxing Crescent, 7% visible
Pressure 29.98 in
Visibility 10.0 miles
Clouds
Heat Index 84 °F
Dew Point 63 °F
Humidity 49%
Rainfall 0.00 in
Snow Depth Not available.
UV Not available.
Pollen 5.60 out of 12
Air Quality Not available.
Flu Activity Not available.
METAR KSRE 160055Z AUTO 13008KT 10SM 26/22 A2998 RMK AO2

More Conditions Fewer Conditions

Pressure 29.98 in
Visibility 10.0 miles
Clouds
Heat Index 84 °F
Dew Point 63 °F
Humidity 49%
Rainfall 0.00 in
Snow Depth Not available.
UV Not available.
Pollen 5.60 out of 12
Air Quality Not available.
Flu Activity Not available.
METAR KSRE 160055Z AUTO 13008KT 10SM 26/22 A2998 RMK AO2

More Conditions Fewer Conditions

10-Day Weather Forecast

Almanac

Astronomy

Jul. 29, 2014 Rise Set
Actual Time 6:32 AM CDT 8:30 PM CDT
Civil Twilight 6:04 AM CDT 8:57 PM CDT
Nautical Twilight 5:30 AM CDT 9:31 PM CDT
Astronomical Twilight 4:54 AM CDT 10:07 PM CDT
Moon 9:01 AM CDT 9:52 PM CDT
Length of Visible Light 14h 53m
Length of Day
13h 57m
Tomorrow will be 1m 33s shorter.
Waxing Crescent, 7% of the Moon is Illuminated
Today
Waxing Crescent
Aug 3
First Quarter
Aug 10
Full
Aug 17
Last Quarter
Aug 25
New

Today's Extremes

State Highs State Lows

Community

WunderPhotos

Upload Photos

1,738,797 photos uploaded!

Nearby

Snow Depth

Station Depth Elevation
No new snow has been reported.

Earthquake Activity

City Distance Mag. Time & Date
Guthrie, Oklahoma 94 miles 2.7 5:27 AM CDT
2014-07-24
Langston, Oklahoma 92 miles 3.2 9:03 AM CDT
2014-07-23
Langston, Oklahoma 93 miles 3.3 9:02 PM CDT
2014-07-22
Guthrie, Oklahoma 94 miles 2.5 7:25 PM CDT
2014-07-22
Minimum magnitude displayed is 2.5.

Coastal Water Temperatures

Place Temperature
No Stations Reporting

Nearby Weather Stations

Station Location Temp. Heat Index Dew Point Humidity Wind Precip. Elev Updated Type
Horntown OK, Holdenville, OK 86.9 °F 90 °F 67 °F 51% ESE  at  2.7 mph - / hr 827 ft 12:28 PM CDT Normal
Emergency Operations Center, Holdenville, OK 84.5 °F 86 °F 65 °F 52% NW  at  1.0 mph 0.00 in / hr 908 ft 12:35 PM CDT Normal
MesoWest GRACE , Wardville, OK 82 °F 80 °F - - North  at  - 0.00 in / hr 678 ft 11:05 AM CDT MADIS
MesoWest NAVY , Savanna, OK 77 °F 75 °F - - North  at  - 0.00 in / hr 711 ft 11:00 AM CDT MADIS

Show More Stations Show Fewer Stations